Westwood, Ohio
Current Conditions -  °F | °C
As of 12:14 PM on Sunday 21 Dec 2014 (Local Time) from KI69 Reporting Station
Broken Clouds Broken Clouds  
Wind Chill: 29°   Ceiling: 1600
Heat Index: 34°   Visibility: 10mi
Dew Point: 28°   Wind: 6mph
Humidity: 81%   Direction: 150°SSE
Pressure: 30.28"   Gusts: NA
Location:  39.1663°N, 84.6602°W
Report Text: KI69 211714Z AUTO 15005KT 10SM BKN016 01/M02 A3028 RMK AO1
Loading
Personal Weather Stations






























Interactive Weather Map New forecast layout! Learn more

10-Day Weather Forecast

Advertisements
Track Severe Weather on mobile